メインページ
METAR-TAF:

METAR-TAF

空港 :

Ha'il, サウジアラビア

緯度: 27-26N, 経度: 041-41E, 海抜: 1015m

現時点の気象観測

当レポートは1時間8分前の20:00(UTC)に作成
の風 4kt
気温 31°C
湿度 22%
気圧 1011 hPa
視程10km以上
1,500メートル以下は雲なし、積乱雲なし

METAR: OEHL 212000Z 01004KT CAVOK 31/07 Q1011 NOSIG

時間: 00:08 (21:08 UTC)

予報

当レポートは10時間8分前の11:00(UTC)に作成
予報は21日の 12時(UTC)から 22日の 18時(UTC)まで有効
北/北西の風 6kt、最大16ktの突風を伴う
視程10km以上
1,500メートル以下は雲なし、積乱雲なし

TAF: OEHL 211100Z 2112/2218 34006G16KT CAVOK

4,000以上の空港の気象観測と天気予報(METAR報とTAF報)

利用可能な観測所は地図上に黄色い丸と赤い丸で示す。

丸の上にカーソルを重ねると観測所名を参照できる。

次にクリックすると気象観測と天気予報を参照できる。

マップの切り替え:黒色「×」印の緑ボタンをクリックして拡大、「-」印の緑ボタンをクリックして縮小、緑色の三角印をクリックして隣りの地図に切り替え


METAR-TAF: